Time;durP1;ratioP1;P1;durP2;ratioP2;P2;SDS_P1;SDS_P2;PMS_P1;PMS_P2;Temp;Humidity;BMP_temperature;BMP_pressure;BME280_temperature;BME280_humidity;BME280_pressure;Samples;Min_cycle;Max_cycle;Signal;HPM_P1;HPM_P2
2021/11/21 00:01:33;;;;;;;13.20;11.73;;;11.20;58.10;;;;;;5029097;28;21463;-46
2021/11/21 00:03:59;;;;;;;12.90;10.90;;;11.30;58.00;;;;;;5024487;28;20196;-50
2021/11/21 00:06:25;;;;;;;12.73;11.40;;;11.10;57.90;;;;;;5025083;28;20942;-51
2021/11/21 00:08:52;;;;;;;14.63;11.20;;;11.10;58.20;;;;;;5023813;28;20189;-49
2021/11/21 00:11:18;;;;;;;13.77;12.17;;;10.60;58.80;;;;;;5025559;28;20877;-49
2021/11/21 00:13:45;;;;;;;13.43;11.60;;;10.60;59.70;;;;;;5027367;28;20792;-51
2021/11/21 00:16:11;;;;;;;12.20;10.73;;;10.70;59.40;;;;;;5023731;28;20940;-46
2021/11/21 00:18:37;;;;;;;13.33;11.00;;;10.70;59.00;;;;;;5025994;28;20483;-50
2021/11/21 00:21:02;;;;;;;14.20;11.63;;;10.70;59.10;;;;;;5029283;28;20220;-48
2021/11/21 00:23:28;;;;;;;13.70;11.30;;;10.80;58.90;;;;;;5031157;28;20197;-50
2021/11/21 00:25:54;;;;;;;11.40;10.30;;;10.90;58.80;;;;;;5028410;28;20189;-47
2021/11/21 00:28:19;;;;;;;12.60;11.27;;;11.00;58.50;;;;;;5024989;28;20201;-51
2021/11/21 00:30:45;;;;;;;14.20;11.90;;;10.90;58.40;;;;;;5024915;28;20204;-51
2021/11/21 00:33:11;;;;;;;13.37;11.17;;;11.00;58.40;;;;;;5024118;28;20189;-49
2021/11/21 00:35:36;;;;;;;12.20;10.27;;;11.00;58.10;;;;;;5028301;28;20295;-48
2021/11/21 00:38:02;;;;;;;12.07;9.60;;;10.90;57.90;;;;;;5022784;28;21001;-48
2021/11/21 00:40:29;;;;;;;10.50;9.40;;;10.90;57.90;;;;;;5023226;28;20225;-46
2021/11/21 00:42:57;;;;;;;11.23;10.03;;;11.00;58.20;;;;;;5025416;28;21010;-50
2021/11/21 00:45:24;;;;;;;11.10;9.70;;;11.00;57.60;;;;;;5030946;28;20440;-51
2021/11/21 00:47:50;;;;;;;12.27;9.50;;;11.10;57.40;;;;;;5030284;28;20447;-47
2021/11/21 00:50:22;;;;;;;12.33;9.80;;;11.00;57.20;;;;;;5027903;28;20950;-48
2021/11/21 00:52:48;;;;;;;10.93;9.80;;;11.10;57.20;;;;;;5026664;28;20512;-48
2021/11/21 00:55:15;;;;;;;11.20;10.00;;;11.10;57.00;;;;;;5027706;28;20451;-47
2021/11/21 00:57:43;;;;;;;12.53;10.63;;;11.10;57.00;;;;;;5025647;28;20193;-51
2021/11/21 01:00:16;;;;;;;10.17;9.10;;;11.00;56.90;;;;;;5031165;28;20495;-51
2021/11/21 01:02:43;;;;;;;12.30;10.03;;;10.70;57.30;;;;;;5027302;28;20440;-47
2021/11/21 01:05:10;;;;;;;10.73;9.17;;;10.70;58.20;;;;;;5025617;28;20440;-50
2021/11/21 01:07:37;;;;;;;13.40;10.53;;;10.70;57.70;;;;;;5029583;28;20443;-47
2021/11/21 01:10:08;;;;;;;11.27;10.07;;;10.70;57.80;;;;;;5022344;28;20468;-49
2021/11/21 01:12:35;;;;;;;11.30;10.10;;;10.50;58.10;;;;;;5025378;28;20444;-48
2021/11/21 01:15:01;;;;;;;14.37;11.20;;;10.50;58.30;;;;;;5025043;28;20451;-48
2021/11/21 01:17:27;;;;;;;13.80;10.40;;;10.40;58.50;;;;;;5030038;28;20475;-49
2021/11/21 01:19:59;;;;;;;16.30;12.60;;;10.50;58.70;;;;;;5029222;28;20947;-50
2021/11/21 01:22:25;;;;;;;13.23;10.87;;;10.30;58.60;;;;;;5028175;28;20203;-47
2021/11/21 01:24:51;;;;;;;14.60;10.03;;;10.20;59.00;;;;;;5028163;28;20526;-48
2021/11/21 01:27:17;;;;;;;14.37;10.97;;;10.30;58.90;;;;;;5026361;28;20523;-47
2021/11/21 01:29:42;;;;;;;11.97;10.23;;;10.30;58.70;;;;;;5023411;28;20189;-47
2021/11/21 01:32:08;;;;;;;11.30;9.80;;;10.20;58.80;;;;;;5025392;28;20197;-51
2021/11/21 01:34:34;;;;;;;12.87;10.27;;;10.20;59.00;;;;;;5022912;28;20197;-49
2021/11/21 01:36:59;;;;;;;12.13;10.17;;;10.30;58.70;;;;;;5024943;28;20216;-48
2021/11/21 01:39:25;;;;;;;12.77;10.03;;;10.20;58.50;;;;;;5027074;28;20193;-49
2021/11/21 01:41:50;;;;;;;12.20;9.87;;;10.20;58.80;;;;;;5022553;28;20308;-48
2021/11/21 01:44:16;;;;;;;12.40;9.97;;;10.00;58.80;;;;;;5027723;28;20200;-50
2021/11/21 01:46:43;;;;;;;14.27;10.90;;;9.60;60.70;;;;;;5027993;28;20324;-51
2021/11/21 01:49:09;;;;;;;12.10;10.80;;;9.20;62.60;;;;;;5030588;28;20198;-47
2021/11/21 01:51:36;;;;;;;12.70;10.40;;;9.20;63.10;;;;;;5029486;28;20447;-50
2021/11/21 01:54:03;;;;;;;12.37;9.20;;;9.30;63.20;;;;;;5026941;28;20466;-52
2021/11/21 01:56:29;;;;;;;10.70;8.90;;;9.50;62.00;;;;;;5026620;28;20527;-48
2021/11/21 01:58:56;;;;;;;11.37;9.67;;;9.60;61.40;;;;;;5029061;28;20538;-49
2021/11/21 02:01:23;;;;;;;11.33;10.07;;;9.50;61.80;;;;;;5023534;28;20487;-49
2021/11/21 02:03:49;;;;;;;9.87;8.87;;;9.50;61.40;;;;;;5023497;28;20448;-49
2021/11/21 02:06:15;;;;;;;12.60;9.70;;;9.30;61.70;;;;;;5024084;28;20841;-48
2021/11/21 02:08:41;;;;;;;12.40;10.20;;;9.30;62.10;;;;;;5028446;28;20948;-48
2021/11/21 02:11:06;;;;;;;12.77;10.13;;;9.30;62.50;;;;;;5023324;28;20446;-49
2021/11/21 02:13:32;;;;;;;12.20;9.73;;;9.30;62.30;;;;;;5026004;28;20591;-50
2021/11/21 02:15:58;;;;;;;13.27;9.67;;;9.40;62.50;;;;;;5025319;28;20189;-48
2021/11/21 02:18:24;;;;;;;11.83;8.93;;;9.40;62.00;;;;;;5028211;28;20547;-47
2021/11/21 02:20:56;;;;;;;11.93;9.77;;;9.30;61.90;;;;;;5022573;28;20223;-50
2021/11/21 02:23:24;;;;;;;10.87;8.67;;;9.30;62.30;;;;;;5026417;28;20452;-51
2021/11/21 02:25:51;;;;;;;11.83;10.10;;;9.20;62.10;;;;;;5026039;28;20450;-48
2021/11/21 02:28:17;;;;;;;13.97;10.13;;;9.30;62.50;;;;;;5027695;28;20440;-53
2021/11/21 02:30:43;;;;;;;11.60;8.83;;;9.30;61.90;;;;;;5027490;28;20792;-50
2021/11/21 02:33:15;;;;;;;11.87;10.27;;;9.40;62.20;;;;;;5032436;28;20440;-47
2021/11/21 02:35:43;;;;;;;10.13;9.13;;;9.50;61.50;;;;;;5031574;28;20939;-48
2021/11/21 02:38:11;;;;;;;11.77;10.00;;;9.60;61.40;;;;;;5031485;28;20447;-50
2021/11/21 02:40:38;;;;;;;11.07;9.20;;;9.70;61.00;;;;;;5029432;28;20483;-48
2021/11/21 02:43:04;;;;;;;11.30;8.77;;;9.80;60.40;;;;;;5028386;28;20471;-48
2021/11/21 02:45:30;;;;;;;11.37;9.90;;;9.80;60.00;;;;;;5027914;28;20440;-48
2021/11/21 02:47:56;;;;;;;11.23;9.57;;;10.00;59.20;;;;;;5032639;28;20262;-48
2021/11/21 02:50:23;;;;;;;11.07;9.07;;;9.80;60.00;;;;;;5029698;28;20537;-48
2021/11/21 02:52:51;;;;;;;11.10;9.00;;;9.70;60.60;;;;;;5031090;28;20876;-46
2021/11/21 02:55:18;;;;;;;11.37;9.37;;;9.70;60.50;;;;;;5027906;28;20443;-47
2021/11/21 02:57:44;;;;;;;11.70;9.73;;;9.40;61.50;;;;;;5027957;28;20439;-46
2021/11/21 03:00:13;;;;;;;10.83;9.73;;;9.20;62.20;;;;;;5033266;28;20616;-51
2021/11/21 03:02:44;;;;;;;13.27;10.47;;;9.20;62.50;;;;;;5025534;28;20974;-49
2021/11/21 03:05:10;;;;;;;11.00;9.70;;;9.40;62.70;;;;;;5029260;28;20443;-48
2021/11/21 03:07:36;;;;;;;13.30;10.40;;;9.50;62.00;;;;;;5023675;28;20448;-48
2021/11/21 03:10:04;;;;;;;10.60;9.20;;;9.60;61.80;;;;;;5030278;28;20489;-47
2021/11/21 03:12:30;;;;;;;12.77;11.20;;;9.70;61.50;;;;;;5032747;28;20444;-47
2021/11/21 03:14:55;;;;;;;12.50;10.00;;;9.70;61.30;;;;;;5027248;28;20477;-49
2021/11/21 03:17:22;;;;;;;14.27;10.20;;;9.60;61.20;;;;;;5025193;28;20235;-47
2021/11/21 03:19:48;;;;;;;12.60;10.03;;;9.60;61.40;;;;;;5026265;28;20698;-46
2021/11/21 03:22:14;;;;;;;12.70;10.30;;;9.70;61.60;;;;;;5024887;28;20440;-48
2021/11/21 03:24:40;;;;;;;13.13;10.70;;;9.70;61.10;;;;;;5026864;28;20810;-47
2021/11/21 03:27:06;;;;;;;15.73;10.90;;;9.40;62.30;;;;;;5024960;28;20444;-48
2021/11/21 03:29:32;;;;;;;15.37;11.67;;;9.20;63.20;;;;;;5026702;28;20197;-48
2021/11/21 03:31:58;;;;;;;13.67;10.30;;;8.90;63.90;;;;;;5025004;28;20533;-48
2021/11/21 03:34:24;;;;;;;12.73;10.03;;;8.90;64.60;;;;;;5028415;28;20440;-47
2021/11/21 03:36:50;;;;;;;13.13;11.00;;;8.90;64.90;;;;;;5026772;28;20497;-48
2021/11/21 03:39:16;;;;;;;16.27;11.40;;;8.80;64.80;;;;;;5032002;28;20279;-49
2021/11/21 03:41:42;;;;;;;15.20;11.30;;;8.80;65.00;;;;;;5028843;28;20549;-47
2021/11/21 03:44:08;;;;;;;16.33;11.53;;;8.60;65.80;;;;;;5026895;28;20609;-46
2021/11/21 03:46:36;;;;;;;17.10;12.27;;;8.60;66.30;;;;;;5030669;28;20271;-47
2021/11/21 03:49:04;;;;;;;21.13;12.70;;;8.70;65.90;;;;;;5023335;28;20463;-46
2021/11/21 03:51:30;;;;;;;15.20;11.40;;;8.80;65.70;;;;;;5024002;28;20489;-47
2021/11/21 03:53:56;;;;;;;15.67;10.37;;;9.00;65.50;;;;;;5028360;28;20459;-46
2021/11/21 03:56:22;;;;;;;16.50;11.57;;;9.20;64.80;;;;;;5021619;28;20466;-47
2021/11/21 03:58:48;;;;;;;17.70;12.67;;;9.50;64.00;;;;;;5023531;28;20930;-48
2021/11/21 04:01:14;;;;;;;15.10;11.43;;;9.60;63.00;;;;;;5026487;28;20479;-49
2021/11/21 04:03:42;;;;;;;16.27;12.37;;;9.30;63.30;;;;;;5023470;28;20677;-47
2021/11/21 04:06:07;;;;;;;15.93;11.70;;;9.00;64.40;;;;;;5026246;28;20201;-47
2021/11/21 04:08:33;;;;;;;14.57;11.43;;;8.90;64.90;;;;;;5026617;28;20454;-47
2021/11/21 04:10:59;;;;;;;16.03;11.03;;;8.90;65.80;;;;;;5022379;28;20663;-46
2021/11/21 04:13:24;;;;;;;16.73;12.10;;;9.10;65.20;;;;;;5025621;28;20918;-47
2021/11/21 04:15:50;;;;;;;16.97;12.00;;;9.30;64.90;;;;;;5025524;28;20201;-47
2021/11/21 04:18:16;;;;;;;18.23;12.83;;;9.30;64.20;;;;;;5022847;28;20310;-47
2021/11/21 04:20:42;;;;;;;15.73;11.80;;;9.30;64.00;;;;;;5027864;28;20236;-48
2021/11/21 04:23:07;;;;;;;14.80;10.93;;;9.40;64.10;;;;;;5024133;28;20197;-47
2021/11/21 04:25:33;;;;;;;19.07;13.20;;;9.30;63.80;;;;;;5023258;28;20268;-47
2021/11/21 04:28:00;;;;;;;15.20;11.90;;;9.30;64.50;;;;;;5023646;28;20185;-48
2021/11/21 04:30:25;;;;;;;16.63;11.90;;;9.40;63.80;;;;;;5025859;28;21029;-49
2021/11/21 04:32:51;;;;;;;17.60;12.50;;;9.40;63.70;;;;;;5025946;28;20452;-46
2021/11/21 04:35:19;;;;;;;16.10;11.57;;;9.30;63.50;;;;;;5022606;28;21001;-47
2021/11/21 04:37:46;;;;;;;16.53;11.30;;;9.10;64.80;;;;;;5025551;28;20193;-48
2021/11/21 04:40:13;;;;;;;16.43;11.37;;;9.20;64.90;;;;;;5027489;28;20578;-47
2021/11/21 04:42:39;;;;;;;18.43;11.87;;;9.40;64.30;;;;;;5023058;28;20983;-47
2021/11/21 04:45:06;;;;;;;17.17;13.23;;;9.40;63.60;;;;;;5024096;28;20440;-47
2021/11/21 04:47:33;;;;;;;17.73;12.80;;;9.30;64.10;;;;;;5026408;28;20944;-50
2021/11/21 04:49:58;;;;;;;15.20;10.93;;;9.40;64.00;;;;;;5024828;28;20433;-48
2021/11/21 04:52:24;;;;;;;12.07;9.50;;;9.30;64.30;;;;;;5021919;28;20437;-48
2021/11/21 04:54:50;;;;;;;14.07;9.63;;;9.30;64.30;;;;;;5030132;28;20196;-47
2021/11/21 04:57:17;;;;;;;15.90;11.50;;;9.30;64.20;;;;;;5027331;28;20653;-51
2021/11/21 04:59:43;;;;;;;12.40;10.40;;;9.50;63.60;;;;;;5022460;28;20232;-49
2021/11/21 05:02:09;;;;;;;13.57;10.87;;;9.70;63.00;;;;;;5028034;28;20487;-48
2021/11/21 05:04:35;;;;;;;12.40;10.20;;;9.80;62.60;;;;;;5025564;28;20482;-47
2021/11/21 05:07:01;;;;;;;13.43;10.90;;;9.90;61.90;;;;;;5026102;28;20440;-46
2021/11/21 05:09:26;;;;;;;12.47;9.60;;;10.00;60.30;;;;;;5026316;28;20273;-47
2021/11/21 05:11:52;;;;;;;12.77;10.90;;;10.10;60.00;;;;;;5023714;28;20512;-46
2021/11/21 05:14:20;;;;;;;14.07;10.30;;;10.10;59.70;;;;;;5021490;28;20280;-46
2021/11/21 05:16:46;;;;;;;13.07;10.47;;;10.20;59.50;;;;;;5025037;28;20193;-47
2021/11/21 05:19:12;;;;;;;12.77;9.57;;;10.20;59.40;;;;;;5028331;28;20531;-46
2021/11/21 05:21:38;;;;;;;12.60;10.27;;;10.20;59.40;;;;;;5026668;28;20491;-46
2021/11/21 05:24:04;;;;;;;11.97;10.30;;;10.20;59.20;;;;;;5025496;28;20435;-47
2021/11/21 05:26:30;;;;;;;9.50;8.50;;;10.20;59.20;;;;;;5022958;28;20185;-49
2021/11/21 05:28:55;;;;;;;10.37;8.57;;;10.30;59.00;;;;;;5026493;28;20436;-48
2021/11/21 05:31:22;;;;;;;13.60;10.53;;;10.30;58.80;;;;;;5027350;28;20789;-48
2021/11/21 05:33:48;;;;;;;11.67;9.77;;;10.30;58.60;;;;;;5021956;28;20673;-47
2021/11/21 05:36:14;;;;;;;14.60;9.97;;;10.30;58.70;;;;;;5030342;28;20526;-49
2021/11/21 05:38:40;;;;;;;12.63;10.20;;;10.30;58.60;;;;;;5028343;28;20448;-47
2021/11/21 05:41:06;;;;;;;12.27;9.83;;;10.30;58.60;;;;;;5027461;28;20495;-50
2021/11/21 05:43:32;;;;;;;14.60;10.57;;;10.20;58.40;;;;;;5028462;28;20282;-49
2021/11/21 05:45:58;;;;;;;12.67;10.10;;;10.20;58.50;;;;;;5029679;28;20243;-48
2021/11/21 05:48:23;;;;;;;11.17;9.97;;;10.10;58.40;;;;;;5025675;28;20194;-49
2021/11/21 05:50:49;;;;;;;12.40;8.63;;;10.00;58.80;;;;;;5023028;28;20204;-49
2021/11/21 05:53:15;;;;;;;11.67;9.30;;;10.10;58.70;;;;;;5023937;28;20197;-46
2021/11/21 05:55:41;;;;;;;10.60;9.10;;;10.10;58.60;;;;;;5022777;28;20201;-48
2021/11/21 05:58:07;;;;;;;10.53;8.57;;;10.10;58.60;;;;;;5026080;28;20198;-46
2021/11/21 06:00:33;;;;;;;11.43;8.70;;;10.10;58.40;;;;;;5028842;28;20491;-47
2021/11/21 06:02:59;;;;;;;11.00;9.10;;;10.20;58.40;;;;;;5028657;28;20446;-47
2021/11/21 06:05:25;;;;;;;10.23;8.50;;;10.10;58.10;;;;;;5026504;28;20668;-50
2021/11/21 06:07:51;;;;;;;11.63;9.37;;;10.00;58.40;;;;;;5027753;28;20867;-48
2021/11/21 06:10:17;;;;;;;9.77;8.63;;;10.00;58.50;;;;;;5033367;28;20517;-48
2021/11/21 06:12:43;;;;;;;13.30;10.17;;;10.00;58.30;;;;;;5029886;28;20493;-47
2021/11/21 06:15:10;;;;;;;10.83;9.00;;;10.00;58.50;;;;;;5029250;28;20216;-47
2021/11/21 06:17:37;;;;;;;10.30;8.43;;;10.00;58.50;;;;;;5030619;28;20989;-47
2021/11/21 06:20:04;;;;;;;11.77;9.20;;;10.10;58.40;;;;;;5031080;28;20440;-48
2021/11/21 06:22:30;;;;;;;11.43;9.57;;;10.10;58.30;;;;;;5028330;28;20526;-46
2021/11/21 06:24:56;;;;;;;13.03;9.83;;;10.10;58.20;;;;;;5029629;28;20504;-47
2021/11/21 06:27:22;;;;;;;13.10;9.43;;;10.00;58.50;;;;;;5031416;28;20452;-47
2021/11/21 06:29:48;;;;;;;12.37;8.70;;;9.80;59.40;;;;;;5027545;28;20288;-48
2021/11/21 06:32:13;;;;;;;12.83;9.57;;;9.80;59.70;;;;;;5027330;28;20230;-46
2021/11/21 06:34:39;;;;;;;12.70;9.30;;;9.80;59.80;;;;;;5032746;28;20201;-47
2021/11/21 06:37:07;;;;;;;13.93;7.90;;;10.00;60.10;;;;;;5030429;28;20189;-51
2021/11/21 06:39:35;;;;;;;14.20;9.37;;;10.20;60.10;;;;;;5032940;28;20568;-47
2021/11/21 06:42:01;;;;;;;12.80;9.47;;;10.40;61.30;;;;;;5026535;28;20630;-46
2021/11/21 06:44:27;;;;;;;11.40;8.90;;;10.60;61.40;;;;;;5031864;28;20802;-48
2021/11/21 06:46:52;;;;;;;12.20;9.70;;;10.80;60.90;;;;;;5031807;28;20508;-47
2021/11/21 06:49:18;;;;;;;12.10;9.03;;;11.00;59.50;;;;;;5031874;28;20201;-47
2021/11/21 06:51:44;;;;;;;13.13;10.30;;;11.10;58.30;;;;;;5026231;28;20197;-47
2021/11/21 06:54:11;;;;;;;11.60;9.30;;;11.20;57.80;;;;;;5030689;28;20181;-46
2021/11/21 06:56:37;;;;;;;15.57;10.47;;;11.20;57.30;;;;;;5029874;28;20808;-46
2021/11/21 06:59:03;;;;;;;12.37;8.87;;;11.30;57.70;;;;;;5033074;28;20432;-46
2021/11/21 07:01:29;;;;;;;12.93;9.27;;;11.30;57.70;;;;;;5032259;28;20494;-48
2021/11/21 07:03:55;;;;;;;11.63;8.43;;;11.10;57.60;;;;;;5027183;28;20791;-50
2021/11/21 07:06:32;;;;;;;11.73;9.30;;;11.30;57.60;;;;;;5025400;28;20201;-49
2021/11/21 07:08:58;;;;;;;12.73;9.80;;;11.40;57.70;;;;;;5023775;28;20189;-49
2021/11/21 07:11:24;;;;;;;11.97;8.90;;;11.40;57.10;;;;;;5027906;28;20436;-51
2021/11/21 07:13:50;;;;;;;13.20;9.73;;;11.30;57.30;;;;;;5026873;28;20858;-48
2021/11/21 07:16:16;;;;;;;12.57;9.43;;;11.40;57.00;;;;;;5024722;28;20201;-51
2021/11/21 07:18:42;;;;;;;13.10;10.80;;;11.40;56.00;;;;;;5029458;28;21009;-47
2021/11/21 07:21:07;;;;;;;14.63;9.93;;;11.50;55.90;;;;;;5032714;28;20274;-49
2021/11/21 07:23:34;;;;;;;13.00;9.47;;;11.50;56.00;;;;;;5033997;28;20189;-52
2021/11/21 07:26:00;;;;;;;11.80;8.70;;;11.60;55.80;;;;;;5035120;28;20185;-51
2021/11/21 07:28:26;;;;;;;12.60;9.80;;;11.60;55.80;;;;;;5036719;28;20440;-50
2021/11/21 07:30:52;;;;;;;11.70;9.70;;;11.70;56.00;;;;;;5028562;28;20450;-48
2021/11/21 07:33:17;;;;;;;13.00;10.90;;;11.80;55.80;;;;;;5031355;28;20653;-52
2021/11/21 07:35:43;;;;;;;13.63;10.40;;;11.80;55.80;;;;;;5032462;28;20431;-49
2021/11/21 07:38:09;;;;;;;15.10;11.17;;;11.80;55.40;;;;;;5032569;28;20201;-49
2021/11/21 07:40:34;;;;;;;15.47;11.23;;;11.80;55.40;;;;;;5031509;28;20232;-47
2021/11/21 07:43:01;;;;;;;17.40;10.90;;;11.80;55.30;;;;;;5030589;28;20204;-47
2021/11/21 07:45:27;;;;;;;13.83;10.60;;;11.80;55.60;;;;;;5032023;28;20197;-48
2021/11/21 07:47:53;;;;;;;13.93;10.93;;;11.80;55.60;;;;;;5033041;28;20436;-49
2021/11/21 07:50:20;;;;;;;15.30;10.57;;;11.80;55.30;;;;;;5032742;28;20436;-50
2021/11/21 07:52:46;;;;;;;16.83;10.87;;;11.80;55.20;;;;;;5030368;28;20301;-48
2021/11/21 07:55:13;;;;;;;15.13;11.13;;;11.80;55.00;;;;;;5032882;28;20523;-51
2021/11/21 07:57:39;;;;;;;16.03;11.77;;;11.80;55.30;;;;;;5028172;28;20247;-47
2021/11/21 08:00:08;;;;;;;15.00;10.80;;;11.80;55.30;;;;;;5031010;28;20916;-49
2021/11/21 08:02:34;;;;;;;17.43;11.90;;;11.90;55.70;;;;;;5030054;28;20433;-47
2021/11/21 08:05:00;;;;;;;18.77;10.63;;;12.00;55.60;;;;;;5032433;28;20428;-51
2021/11/21 08:07:25;;;;;;;15.50;12.00;;;12.00;55.20;;;;;;5023826;28;20209;-46
2021/11/21 08:09:51;;;;;;;15.87;11.53;;;12.00;55.00;;;;;;5027457;28;20243;-50
2021/11/21 08:12:17;;;;;;;15.97;11.20;;;12.00;54.80;;;;;;5027416;28;20247;-46
2021/11/21 08:14:42;;;;;;;21.13;12.33;;;11.90;54.80;;;;;;5031382;28;20200;-47
2021/11/21 08:17:08;;;;;;;19.27;13.33;;;11.90;55.10;;;;;;5031566;28;20478;-46
2021/11/21 08:19:34;;;;;;;17.03;11.80;;;11.90;55.30;;;;;;5031859;28;20316;-51
2021/11/21 08:22:00;;;;;;;17.80;11.97;;;11.90;55.40;;;;;;5032431;28;20228;-47
2021/11/21 08:24:25;;;;;;;17.77;11.73;;;12.00;55.40;;;;;;5041462;28;20201;-50
2021/11/21 08:26:51;;;;;;;18.47;12.20;;;12.00;55.50;;;;;;5026331;28;20444;-50
2021/11/21 08:29:17;;;;;;;15.87;10.83;;;12.00;55.20;;;;;;5031343;28;20224;-48
2021/11/21 08:31:43;;;;;;;16.00;10.63;;;12.10;55.40;;;;;;5036524;28;20193;-47
2021/11/21 08:34:09;;;;;;;19.00;12.40;;;12.10;55.40;;;;;;5032696;28;20193;-47
2021/11/21 08:36:35;;;;;;;17.23;12.50;;;12.10;55.30;;;;;;5032039;28;20424;-49
2021/11/21 08:39:02;;;;;;;16.97;12.30;;;12.10;55.20;;;;;;5025860;28;20441;-48
2021/11/21 08:41:27;;;;;;;17.43;11.73;;;12.10;55.20;;;;;;5028535;28;20479;-49
2021/11/21 08:43:53;;;;;;;15.80;12.00;;;12.10;55.40;;;;;;5030921;28;20916;-48
2021/11/21 08:46:19;;;;;;;17.30;11.87;;;12.10;55.60;;;;;;5035794;28;20596;-47
2021/11/21 08:48:45;;;;;;;12.90;11.10;;;12.10;55.40;;;;;;5033909;28;20255;-47
2021/11/21 08:51:11;;;;;;;17.30;12.17;;;12.10;55.50;;;;;;5030563;28;20224;-51
2021/11/21 08:53:36;;;;;;;15.80;11.30;;;12.10;55.90;;;;;;5034825;28;20565;-48
2021/11/21 08:56:02;;;;;;;13.77;11.20;;;12.10;55.70;;;;;;5036368;28;20443;-48
2021/11/21 08:58:28;;;;;;;15.73;10.57;;;12.10;55.80;;;;;;5032782;28;20219;-50
2021/11/21 09:00:54;;;;;;;16.10;10.53;;;12.00;55.40;;;;;;5027521;28;20488;-47
2021/11/21 09:03:19;;;;;;;16.80;11.93;;;12.00;55.60;;;;;;5028233;28;20221;-50
2021/11/21 09:05:45;;;;;;;19.87;13.67;;;12.00;55.80;;;;;;5026339;28;20970;-48
2021/11/21 09:08:12;;;;;;;16.00;11.93;;;12.00;55.90;;;;;;5032114;28;20716;-47
2021/11/21 09:10:38;;;;;;;18.90;12.40;;;12.00;55.80;;;;;;5030286;28;20275;-47
2021/11/21 09:13:04;;;;;;;16.87;11.57;;;12.00;56.00;;;;;;5028493;28;20502;-48
2021/11/21 09:15:29;;;;;;;16.53;11.90;;;11.90;56.20;;;;;;5033871;28;20205;-46
2021/11/21 09:17:55;;;;;;;15.60;12.00;;;11.80;56.60;;;;;;5030679;28;20237;-48
2021/11/21 09:20:25;;;;;;;19.27;12.53;;;11.90;56.80;;;;;;5036655;28;20226;-47
2021/11/21 09:22:52;;;;;;;16.83;12.00;;;11.90;56.90;;;;;;5029985;28;20205;-49
2021/11/21 09:25:17;;;;;;;18.97;13.20;;;11.80;56.80;;;;;;5029118;28;20439;-47
2021/11/21 09:27:43;;;;;;;16.30;12.67;;;11.60;56.90;;;;;;5026802;28;20971;-46
2021/11/21 09:30:10;;;;;;;15.77;12.40;;;11.60;57.20;;;;;;5024979;28;20262;-50
2021/11/21 09:32:36;;;;;;;18.33;11.73;;;11.60;57.20;;;;;;5034770;28;20193;-49
2021/11/21 09:35:03;;;;;;;13.70;10.40;;;11.50;56.90;;;;;;5029399;28;20542;-47
2021/11/21 09:37:29;;;;;;;12.40;8.67;;;11.50;57.00;;;;;;5031267;28;20919;-47
2021/11/21 09:39:55;;;;;;;12.93;10.10;;;11.40;57.20;;;;;;5035761;28;20522;-48
2021/11/21 09:42:20;;;;;;;14.07;9.70;;;11.30;57.50;;;;;;5027674;28;20252;-46
2021/11/21 09:44:46;;;;;;;13.93;10.03;;;11.20;57.80;;;;;;5024240;28;20280;-47
2021/11/21 09:47:13;;;;;;;15.63;10.33;;;11.20;58.20;;;;;;5026241;28;20196;-48
2021/11/21 09:49:39;;;;;;;14.67;11.47;;;11.30;57.90;;;;;;5028363;28;20205;-50
2021/11/21 09:52:06;;;;;;;11.87;9.67;;;11.40;58.00;;;;;;5026376;28;21145;-47
2021/11/21 09:54:32;;;;;;;12.33;8.70;;;11.40;57.70;;;;;;5024981;28;20490;-48
2021/11/21 09:56:58;;;;;;;12.00;8.23;;;11.20;57.60;;;;;;5020270;28;20517;-48
2021/11/21 09:59:53;;;;;;;12.40;8.50;;;11.10;57.60;;;;;;5025932;28;20502;-48
2021/11/21 10:02:39;;;;;;;11.37;9.37;;;10.90;58.10;;;;;;5020534;28;20974;-47
2021/11/21 10:05:25;;;;;;;11.23;8.50;;;11.00;58.30;;;;;;5035419;28;20931;-50
2021/11/21 10:08:04;;;;;;;11.70;8.50;;;11.00;58.20;;;;;;5023079;28;20454;-48
2021/11/21 10:10:36;;;;;;;10.40;8.37;;;11.00;58.50;;;;;;5028220;28;20826;-47
2021/11/21 10:13:02;;;;;;;15.67;8.80;;;10.80;58.60;;;;;;5029607;28;20527;-48
2021/11/21 10:15:27;;;;;;;11.50;8.90;;;10.90;59.10;;;;;;5030040;28;20570;-49
2021/11/21 10:17:56;;;;;;;11.77;9.50;;;10.80;59.20;;;;;;5032218;28;20241;-47
2021/11/21 10:20:28;;;;;;;12.47;9.50;;;10.80;59.30;;;;;;5027309;28;20228;-49
2021/11/21 10:23:10;;;;;;;10.03;8.33;;;10.90;59.40;;;;;;5029753;28;20454;-47
2021/11/21 10:25:46;;;;;;;11.57;8.30;;;10.90;59.10;;;;;;5029848;28;20854;-48
2021/11/21 10:28:19;;;;;;;12.57;8.40;;;10.90;59.40;;;;;;5025041;28;20431;-46
2021/11/21 10:30:54;;;;;;;11.33;8.43;;;11.00;59.40;;;;;;5028429;28;20454;-49
2021/11/21 10:33:26;;;;;;;12.60;9.47;;;11.10;59.20;;;;;;5026841;28;20443;-46
2021/11/21 10:36:11;;;;;;;13.63;9.27;;;11.10;59.00;;;;;;5029487;28;20962;-46
2021/11/21 10:38:43;;;;;;;11.97;9.57;;;10.80;59.30;;;;;;5034058;28;20439;-49
2021/11/21 10:41:32;;;;;;;14.60;9.87;;;10.70;59.50;;;;;;5037223;28;20581;-49
2021/11/21 10:44:04;;;;;;;11.93;7.93;;;10.80;59.50;;;;;;5027187;28;20441;-49
2021/11/21 10:46:42;;;;;;;10.90;8.10;;;10.80;59.40;;;;;;5044443;28;20826;-47
2021/11/21 10:49:22;;;;;;;12.27;7.90;;;10.90;59.40;;;;;;5027428;28;20444;-48
2021/11/21 10:52:15;;;;;;;12.80;8.20;;;10.80;59.50;;;;;;5031946;28;20438;-48
2021/11/21 10:54:50;;;;;;;11.87;7.57;;;10.80;59.50;;;;;;5029585;28;20448;-48
2021/11/21 10:57:21;;;;;;;12.10;8.37;;;10.70;59.90;;;;;;5032233;28;20482;-48
2021/11/21 10:59:59;;;;;;;13.00;8.50;;;10.70;60.00;;;;;;5029748;28;21241;-49
2021/11/21 11:02:30;;;;;;;11.20;7.40;;;10.60;60.30;;;;;;5031367;28;20483;-48
2021/11/21 11:05:04;;;;;;;12.27;7.63;;;10.60;60.30;;;;;;5032036;28;20534;-47
2021/11/21 11:07:50;;;;;;;10.53;7.20;;;10.60;60.80;;;;;;5029821;28;20526;-48
2021/11/21 11:10:35;;;;;;;9.67;6.97;;;10.60;60.50;;;;;;5030764;28;20470;-48
2021/11/21 11:13:08;;;;;;;14.77;6.73;;;10.80;60.10;;;;;;5035354;28;20892;-48
2021/11/21 11:15:37;;;;;;;9.80;6.47;;;10.80;59.70;;;;;;5041838;28;20435;-48
2021/11/21 11:18:03;;;;;;;9.43;5.63;;;10.80;59.50;;;;;;5040393;28;20474;-47
2021/11/21 11:20:29;;;;;;;8.40;6.43;;;10.70;59.30;;;;;;5031161;28;20974;-51
2021/11/21 11:22:58;;;;;;;9.87;5.97;;;10.80;59.50;;;;;;5032569;28;20501;-48
2021/11/21 11:25:31;;;;;;;8.53;6.80;;;10.70;59.50;;;;;;5032408;28;20439;-47
2021/11/21 11:28:24;;;;;;;8.50;6.07;;;10.90;59.60;;;;;;5022700;28;20443;-47
2021/11/21 11:30:51;;;;;;;7.13;5.70;;;10.80;59.70;;;;;;5039805;28;20489;-48
2021/11/21 11:33:20;;;;;;;9.70;6.47;;;10.90;59.60;;;;;;5034488;28;20439;-47
2021/11/21 11:35:48;;;;;;;8.13;4.93;;;10.90;59.30;;;;;;5031847;28;21092;-46
2021/11/21 11:38:23;;;;;;;7.67;5.67;;;10.80;59.10;;;;;;5035166;28;20424;-47
2021/11/21 11:40:57;;;;;;;8.53;5.60;;;10.80;59.40;;;;;;5032481;28;20915;-48
2021/11/21 11:43:31;;;;;;;12.87;5.63;;;10.70;59.50;;;;;;5033097;28;20435;-47
2021/11/21 11:46:08;;;;;;;6.93;5.87;;;10.80;59.50;;;;;;5035923;28;20434;-47
2021/11/21 11:48:46;;;;;;;8.00;5.90;;;10.80;59.30;;;;;;5029894;28;20834;-47
2021/11/21 11:51:18;;;;;;;8.40;6.13;;;10.80;59.30;;;;;;5031173;28;20809;-47
2021/11/21 11:53:47;;;;;;;9.40;6.93;;;10.60;59.20;;;;;;5036291;28;20450;-47
2021/11/21 11:56:42;;;;;;;8.50;5.83;;;10.50;60.00;;;;;;5031790;28;20432;-47
2021/11/21 11:59:11;;;;;;;8.83;5.80;;;10.50;59.90;;;;;;5030563;28;20443;-47
2021/11/21 12:01:39;;;;;;;9.30;6.23;;;10.40;60.50;;;;;;5035163;28;20537;-47
2021/11/21 12:04:08;;;;;;;10.53;5.80;;;10.50;60.20;;;;;;5030276;28;21549;-48
2021/11/21 12:06:48;;;;;;;5.77;5.17;;;10.60;59.80;;;;;;5032749;28;20440;-47
2021/11/21 12:09:19;;;;;;;8.27;6.13;;;10.60;60.40;;;;;;5034933;28;20955;-51
2021/11/21 12:12:02;;;;;;;8.87;6.03;;;10.50;60.00;;;;;;5027327;28;20440;-47
2021/11/21 12:14:39;;;;;;;9.43;6.60;;;10.70;60.10;;;;;;5025398;28;20452;-47
2021/11/21 12:17:10;;;;;;;10.07;7.27;;;10.80;59.90;;;;;;5030832;28;20475;-48
2021/11/21 12:19:47;;;;;;;8.73;6.60;;;10.80;59.60;;;;;;5031268;28;20783;-48
2021/11/21 12:22:24;;;;;;;7.80;5.00;;;10.80;59.50;;;;;;5038924;28;20819;-47
2021/11/21 12:24:52;;;;;;;6.80;5.23;;;10.70;59.40;;;;;;5036547;28;20976;-47
2021/11/21 12:27:26;;;;;;;7.67;5.63;;;10.70;59.20;;;;;;5030612;28;20436;-48
2021/11/21 12:30:22;;;;;;;9.50;5.90;;;10.60;59.20;;;;;;5028305;28;20441;-47
2021/11/21 12:32:56;;;;;;;13.40;9.80;;;10.50;59.50;;;;;;5026218;28;20448;-47
2021/11/21 12:35:23;;;;;;;13.17;8.50;;;10.50;59.40;;;;;;5028488;28;20435;-48
2021/11/21 12:37:51;;;;;;;13.07;9.47;;;10.60;59.40;;;;;;5029020;28;20467;-47
2021/11/21 12:40:25;;;;;;;13.53;9.27;;;10.70;59.00;;;;;;5025851;28;20440;-48